Time;durP1;ratioP1;P1;durP2;ratioP2;P2;SDS_P1;SDS_P2;PMS_P1;PMS_P2;Temp;Humidity;BMP_temperature;BMP_pressure;BME280_temperature;BME280_humidity;BME280_pressure;Samples;Min_cycle;Max_cycle;Signal;HPM_P1;HPM_P2
2022/09/21 00:01:06;;;;;;;12.05;5.15;;;15.00;99.90;;;;;;5054852;28;20080;-59
2022/09/21 00:03:33;;;;;;;;;;;15.00;99.90;;;;;;5053120;28;20485;-59
2022/09/21 00:06:09;;;;;;;8.68;5.05;;;15.00;99.90;;;;;;5053421;28;19924;-59
2022/09/21 00:08:36;;;;;;;9.00;4.55;;;15.00;99.90;;;;;;5032190;28;20045;-59
2022/09/21 00:11:03;;;;;;;11.30;5.38;;;15.00;99.90;;;;;;5048428;28;20041;-59
2022/09/21 00:13:32;;;;;;;10.07;4.97;;;15.00;99.90;;;;;;5052883;28;20057;-60
2022/09/21 00:16:00;;;;;;;12.23;5.45;;;15.00;99.90;;;;;;5051424;28;20080;-61
2022/09/21 00:18:26;;;;;;;10.57;5.18;;;15.00;99.90;;;;;;5051092;28;20071;-60
2022/09/21 00:20:53;;;;;;;11.93;5.18;;;15.00;99.90;;;;;;5051820;28;20120;-59
2022/09/21 00:23:20;;;;;;;11.13;5.35;;;14.90;99.90;;;;;;5051448;28;20088;-59
2022/09/21 00:25:47;;;;;;;10.13;4.95;;;14.80;99.90;;;;;;5052535;28;20087;-59
2022/09/21 00:28:14;;;;;;;14.00;5.15;;;14.80;99.90;;;;;;5051584;28;20529;-60
2022/09/21 00:30:40;;;;;;;11.45;5.75;;;14.80;99.90;;;;;;5051658;28;20047;-60
2022/09/21 00:33:08;;;;;;;10.30;5.15;;;14.80;99.90;;;;;;5034566;28;20145;-59
2022/09/21 00:35:34;;;;;;;8.35;4.70;;;14.80;99.90;;;;;;4703400;28;10000505;-59
2022/09/21 00:38:02;;;;;;;8.23;4.80;;;14.80;99.90;;;;;;5049429;28;20044;-60
2022/09/21 00:40:29;;;;;;;10.57;4.38;;;14.80;99.90;;;;;;5051835;28;20403;-59
2022/09/21 00:43:14;;;;;;;9.70;5.32;;;14.80;99.90;;;;;;5052254;28;20045;-59
2022/09/21 00:45:42;;;;;;;8.35;5.10;;;14.80;99.90;;;;;;5053054;28;20045;-60
2022/09/21 00:48:09;;;;;;;11.05;5.57;;;14.80;99.90;;;;;;5052545;28;20404;-60
2022/09/21 00:50:36;;;;;;;9.18;5.50;;;14.70;99.90;;;;;;5051505;28;20057;-60
2022/09/21 00:53:03;;;;;;;8.95;5.22;;;14.70;99.90;;;;;;5031249;28;20054;-59
2022/09/21 00:55:36;;;;;;;11.23;5.53;;;14.60;99.90;;;;;;5032602;28;20124;-60
2022/09/21 00:58:08;;;;;;;10.30;4.70;;;14.60;99.90;;;;;;5050212;28;20419;-60
2022/09/21 01:00:39;;;;;;;10.20;4.70;;;14.60;99.90;;;;;;5052735;28;20049;-58
2022/09/21 01:03:06;;;;;;;9.02;4.80;;;14.60;99.90;;;;;;5053949;28;20414;-60
2022/09/21 01:05:32;;;;;;;14.07;5.10;;;14.60;99.90;;;;;;5038225;28;20488;-60
2022/09/21 01:08:00;;;;;;;8.38;4.95;;;14.60;99.90;;;;;;5055104;28;20043;-59
2022/09/21 01:10:29;;;;;;;10.90;4.93;;;14.50;99.90;;;;;;5038685;28;20056;-60
2022/09/21 01:13:20;;;;;;;9.70;4.65;;;14.50;99.90;;;;;;5053928;28;20037;-59
2022/09/21 01:15:53;;;;;;;10.05;5.10;;;14.50;99.90;;;;;;5034794;28;20067;-60
2022/09/21 01:18:23;;;;;;;11.95;5.10;;;14.50;99.90;;;;;;5050169;28;20519;-60
2022/09/21 01:20:59;;;;;;;7.10;4.78;;;14.50;99.90;;;;;;5056388;28;20105;-60
2022/09/21 01:23:32;;;;;;;14.07;4.72;;;14.40;99.90;;;;;;5055554;28;20044;-60
2022/09/21 01:26:28;;;;;;;12.23;4.78;;;14.40;99.90;;;;;;5055027;28;20124;-60
2022/09/21 01:29:01;;;;;;;8.27;4.10;;;14.40;99.90;;;;;;5056094;28;20049;-59
2022/09/21 01:31:33;;;;;;;8.10;4.55;;;14.40;99.90;;;;;;5057789;28;20049;-59
2022/09/21 01:34:04;;;;;;;16.60;5.20;;;14.40;99.90;;;;;;5036143;28;20049;-59
2022/09/21 01:36:31;;;;;;;9.88;4.65;;;14.40;99.90;;;;;;5056737;28;20055;-60
2022/09/21 01:39:06;;;;;;;12.95;4.85;;;14.40;99.90;;;;;;5055584;28;20085;-59
2022/09/21 01:41:34;;;;;;;9.80;4.97;;;14.30;99.90;;;;;;5054373;28;20156;-59
2022/09/21 01:44:07;;;;;;;13.52;5.00;;;14.20;99.90;;;;;;5037178;28;20049;-59
2022/09/21 01:46:34;;;;;;;11.57;4.95;;;14.20;99.90;;;;;;5038744;28;20071;-59
2022/09/21 01:49:10;;;;;;;11.02;5.32;;;14.10;99.90;;;;;;5037693;28;20063;-59
2022/09/21 01:51:42;;;;;;;8.25;4.28;;;14.20;99.90;;;;;;5038986;28;20052;-59
2022/09/21 01:54:15;;;;;;;10.82;4.65;;;14.20;99.90;;;;;;5038357;28;20129;-59
2022/09/21 01:56:52;;;;;;;9.65;4.68;;;14.20;99.90;;;;;;5038106;28;20560;-59
2022/09/21 01:59:26;;;;;;;8.73;4.65;;;14.20;99.90;;;;;;5038687;28;20130;-59
2022/09/21 02:02:07;;;;;;;12.57;4.80;;;14.20;99.90;;;;;;5037447;28;20545;-60
2022/09/21 02:04:34;;;;;;;11.00;4.38;;;14.20;99.90;;;;;;5053902;28;20056;-61
2022/09/21 02:07:01;;;;;;;11.73;3.75;;;14.20;99.90;;;;;;5037354;28;20424;-60
2022/09/21 02:09:28;;;;;;;8.98;4.53;;;14.20;99.90;;;;;;5055297;28;20041;-60
2022/09/21 02:11:57;;;;;;;7.72;4.65;;;14.20;99.90;;;;;;5054628;28;20053;-60
2022/09/21 02:14:24;;;;;;;10.07;4.70;;;14.20;99.90;;;;;;5052469;28;20552;-59
2022/09/21 02:17:11;;;;;;;10.73;5.22;;;14.20;99.90;;;;;;5052976;28;20548;-60
2022/09/21 02:19:47;;;;;;;10.27;4.88;;;14.10;99.90;;;;;;5052932;28;20411;-60
2022/09/21 02:22:40;;;;;;;10.38;4.95;;;14.10;99.90;;;;;;5054856;28;20045;-61
2022/09/21 02:25:14;;;;;;;5.35;3.90;;;14.10;99.90;;;;;;5052480;28;20057;-59
2022/09/21 02:27:59;;;;;;;10.55;5.18;;;14.10;99.90;;;;;;5055003;28;20051;-60
2022/09/21 02:30:28;;;;;;;11.95;4.18;;;14.10;99.90;;;;;;5033414;28;20051;-60
2022/09/21 02:33:09;;;;;;;6.63;3.85;;;14.20;99.90;;;;;;5050558;28;20139;-61
2022/09/21 02:35:37;;;;;;;10.23;4.50;;;14.20;99.90;;;;;;5054099;28;20072;-59
2022/09/21 02:38:20;;;;;;;11.18;4.30;;;14.20;99.90;;;;;;5053386;28;20067;-60
2022/09/21 02:41:18;;;;;;;7.23;3.90;;;14.20;99.90;;;;;;5038133;28;20140;-60
2022/09/21 02:43:51;;;;;;;8.55;4.00;;;14.20;99.90;;;;;;5035084;28;20393;-59
2022/09/21 02:46:30;;;;;;;10.45;4.45;;;14.10;99.90;;;;;;5048695;28;20041;-59
2022/09/21 02:48:59;;;;;;;10.00;4.50;;;14.20;99.90;;;;;;5033852;28;20045;-60
2022/09/21 02:51:35;;;;;;;7.82;4.07;;;14.10;99.90;;;;;;5036595;28;20454;-59
2022/09/21 02:54:03;;;;;;;6.93;3.83;;;14.10;99.90;;;;;;5015186;28;20107;-59
2022/09/21 02:56:30;;;;;;;7.10;4.22;;;14.20;99.90;;;;;;5052070;28;20393;-59
2022/09/21 02:59:00;;;;;;;8.07;4.22;;;14.20;99.90;;;;;;5051182;28;20396;-59
2022/09/21 03:01:27;;;;;;;7.88;4.35;;;14.20;99.90;;;;;;5019651;28;20131;-61
2022/09/21 03:03:54;;;;;;;9.57;4.57;;;14.30;99.90;;;;;;5051946;28;20056;-61
2022/09/21 03:06:20;;;;;;;7.40;4.03;;;14.20;99.90;;;;;;5052885;28;20041;-61
2022/09/21 03:08:47;;;;;;;7.93;4.03;;;14.20;99.90;;;;;;5052965;28;20056;-60
2022/09/21 03:11:18;;;;;;;7.38;4.22;;;14.20;99.90;;;;;;5051921;28;20053;-60
2022/09/21 03:13:45;;;;;;;8.05;3.80;;;14.10;99.90;;;;;;5051614;28;20045;-60
2022/09/21 03:16:12;;;;;;;8.00;3.92;;;14.10;99.90;;;;;;5053254;28;20131;-60
2022/09/21 03:18:39;;;;;;;9.90;4.80;;;14.10;99.90;;;;;;5052880;28;20063;-60
2022/09/21 03:21:06;;;;;;;8.68;4.25;;;14.20;99.90;;;;;;5053344;28;20095;-60
2022/09/21 03:23:32;;;;;;;6.53;3.58;;;14.20;99.90;;;;;;5051479;28;20053;-59
2022/09/21 03:25:59;;;;;;;10.98;3.90;;;14.20;99.90;;;;;;5053671;28;20136;-61
2022/09/21 03:28:26;;;;;;;8.20;4.53;;;14.30;99.90;;;;;;5053592;28;20077;-60
2022/09/21 03:30:53;;;;;;;8.35;4.35;;;14.20;99.90;;;;;;5052913;28;20053;-60
2022/09/21 03:33:19;;;;;;;8.00;3.92;;;14.20;99.90;;;;;;5052913;28;20041;-60
2022/09/21 03:35:50;;;;;;;6.63;3.53;;;14.20;99.90;;;;;;5052850;28;20049;-60
2022/09/21 03:38:17;;;;;;;7.10;3.72;;;14.20;99.90;;;;;;5051562;28;20049;-60
2022/09/21 03:40:45;;;;;;;10.40;4.32;;;14.30;99.90;;;;;;5052539;28;20132;-61
2022/09/21 03:43:12;;;;;;;6.43;3.78;;;14.30;99.90;;;;;;5052874;28;20155;-60
2022/09/21 03:45:40;;;;;;;7.60;5.00;;;14.30;99.90;;;;;;5051622;28;20053;-60
2022/09/21 03:48:08;;;;;;;8.55;4.05;;;14.30;99.90;;;;;;5051127;28;20179;-60
2022/09/21 03:50:35;;;;;;;10.38;4.57;;;14.20;99.90;;;;;;5052637;28;20408;-60
2022/09/21 03:53:02;;;;;;;9.15;4.45;;;14.30;99.90;;;;;;5050917;28;20061;-60
2022/09/21 03:55:28;;;;;;;8.93;4.88;;;14.30;99.90;;;;;;5052987;28;20044;-61
2022/09/21 03:57:55;;;;;;;11.77;3.47;;;14.30;99.90;;;;;;5052156;28;20053;-59
2022/09/21 04:00:22;;;;;;;6.57;3.72;;;14.30;99.90;;;;;;5052296;28;20395;-60
2022/09/21 04:02:48;;;;;;;9.52;4.15;;;14.40;99.90;;;;;;5052407;28;20045;-58
2022/09/21 04:05:16;;;;;;;9.50;4.28;;;14.40;99.90;;;;;;5032852;28;20152;-60
2022/09/21 04:07:44;;;;;;;6.43;4.10;;;14.40;99.90;;;;;;5037112;28;20041;-59
2022/09/21 04:10:13;;;;;;;7.20;3.67;;;14.30;99.90;;;;;;5051279;28;20060;-60
2022/09/21 04:12:43;;;;;;;6.15;3.58;;;14.40;99.90;;;;;;5052196;28;20052;-60
2022/09/21 04:15:14;;;;;;;10.45;3.80;;;14.40;99.90;;;;;;5052363;28;20049;-59
2022/09/21 04:17:41;;;;;;;6.82;3.63;;;14.40;99.90;;;;;;5051948;28;20053;-61
2022/09/21 04:20:08;;;;;;;7.05;3.85;;;14.40;99.90;;;;;;5048493;28;20083;-60
2022/09/21 04:22:37;;;;;;;7.35;3.97;;;14.40;99.90;;;;;;5052234;28;20123;-60
2022/09/21 04:25:09;;;;;;;10.43;3.95;;;14.30;99.90;;;;;;5049543;28;20079;-57
2022/09/21 04:27:36;;;;;;;6.85;4.15;;;14.30;99.90;;;;;;5051189;28;20095;-60
2022/09/21 04:30:04;;;;;;;8.48;4.28;;;14.30;99.90;;;;;;5050071;28;20045;-60
2022/09/21 04:32:31;;;;;;;6.68;4.10;;;14.30;99.90;;;;;;5052304;28;20386;-60
2022/09/21 04:34:58;;;;;;;9.15;4.55;;;14.30;99.90;;;;;;5052046;28;20463;-60
2022/09/21 04:37:24;;;;;;;7.05;3.67;;;14.30;99.90;;;;;;5055232;28;20109;-61
2022/09/21 04:39:51;;;;;;;6.03;3.75;;;14.30;99.90;;;;;;5056143;28;20123;-60
2022/09/21 04:42:18;;;;;;;8.45;3.78;;;14.30;99.90;;;;;;5055886;28;20055;-60
2022/09/21 04:44:45;;;;;;;10.85;4.22;;;14.30;99.90;;;;;;5054730;28;20364;-59
2022/09/21 04:47:12;;;;;;;5.43;3.80;;;14.30;99.90;;;;;;5054587;28;20494;-59
2022/09/21 04:49:38;;;;;;;6.53;3.80;;;14.30;99.90;;;;;;5055550;28;20041;-59
2022/09/21 04:52:05;;;;;;;7.30;3.38;;;14.30;99.90;;;;;;5055395;28;20476;-59
2022/09/21 04:54:32;;;;;;;10.25;4.50;;;14.30;99.90;;;;;;5055852;28;20041;-59
2022/09/21 04:56:59;;;;;;;8.18;4.03;;;14.20;99.90;;;;;;5037772;28;20043;-59
2022/09/21 04:59:26;;;;;;;11.07;3.97;;;14.30;99.90;;;;;;5056229;28;20132;-59
2022/09/21 05:01:52;;;;;;;13.82;4.13;;;14.30;99.90;;;;;;5054461;28;20041;-59
2022/09/21 05:04:19;;;;;;;5.78;3.55;;;14.20;99.90;;;;;;5055754;28;20465;-60
2022/09/21 05:06:46;;;;;;;6.15;4.07;;;14.30;99.90;;;;;;5055822;28;20053;-59
2022/09/21 05:11:58;;;;;;;6.43;3.63;;;14.30;99.90;;;;;;5055312;28;20457;-60
2022/09/21 05:14:25;;;;;;;7.07;3.60;;;14.30;99.90;;;;;;5055508;28;20053;-59
2022/09/21 05:16:51;;;;;;;6.28;4.05;;;14.30;99.90;;;;;;5053794;28;20068;-60
2022/09/21 05:19:18;;;;;;;5.07;3.67;;;14.30;99.90;;;;;;5055542;28;20063;-59
2022/09/21 05:21:45;;;;;;;7.75;3.88;;;14.30;99.90;;;;;;5054663;28;20518;-59
2022/09/21 05:24:12;;;;;;;5.50;3.28;;;14.30;99.90;;;;;;5055552;28;20051;-60
2022/09/21 05:26:39;;;;;;;8.63;3.50;;;14.30;99.90;;;;;;5056054;28;20067;-59
2022/09/21 05:29:06;;;;;;;6.00;3.75;;;14.30;99.90;;;;;;5055816;28;20073;-59
2022/09/21 05:31:42;;;;;;;6.80;4.03;;;14.30;99.90;;;;;;5054280;28;20052;-59
2022/09/21 05:34:14;;;;;;;7.50;3.80;;;14.30;99.90;;;;;;5038764;28;20566;-59
2022/09/21 05:37:01;;;;;;;6.45;3.53;;;14.30;99.90;;;;;;5054857;28;20037;-58
2022/09/21 05:39:28;;;;;;;10.07;4.03;;;14.30;99.90;;;;;;5055678;28;20065;-60
2022/09/21 05:41:55;;;;;;;11.40;4.25;;;14.30;99.90;;;;;;5054099;28;20048;-60
2022/09/21 05:44:22;;;;;;;9.50;4.28;;;14.30;99.90;;;;;;5054258;28;20049;-59
2022/09/21 05:46:58;;;;;;;7.10;3.85;;;14.30;99.90;;;;;;5054012;28;20041;-59
2022/09/21 05:49:30;;;;;;;7.80;4.28;;;14.30;99.90;;;;;;5054413;28;20131;-61
2022/09/21 05:52:02;;;;;;;5.75;3.92;;;14.30;99.90;;;;;;5037705;28;20137;-59
2022/09/21 05:54:48;;;;;;;6.55;3.08;;;14.40;99.90;;;;;;5053761;28;20563;-60
2022/09/21 05:57:39;;;;;;;9.45;3.72;;;14.40;99.90;;;;;;5055480;28;20044;-60
2022/09/21 06:00:13;;;;;;;7.80;4.65;;;14.40;99.90;;;;;;5054006;28;20126;-59
2022/09/21 06:03:17;;;;;;;9.93;3.38;;;14.40;99.90;;;;;;5053531;28;20088;-59
2022/09/21 06:05:45;;;;;;;10.65;4.13;;;14.50;99.90;;;;;;5033388;28;20059;-59
2022/09/21 06:08:12;;;;;;;8.38;4.30;;;14.50;99.90;;;;;;5051371;28;20065;-60
2022/09/21 06:10:38;;;;;;;6.95;4.30;;;14.50;99.90;;;;;;5053749;28;20563;-60
2022/09/21 06:13:05;;;;;;;7.57;4.38;;;14.50;99.90;;;;;;5053365;28;20537;-58
2022/09/21 06:15:37;;;;;;;8.20;3.72;;;14.50;99.90;;;;;;5054745;28;20539;-59
2022/09/21 06:18:07;;;;;;;10.38;3.92;;;14.50;99.90;;;;;;5053325;28;20136;-59
2022/09/21 06:20:34;;;;;;;6.50;4.43;;;14.50;99.90;;;;;;5053685;28;20094;-61
2022/09/21 06:23:05;;;;;;;6.55;3.53;;;14.60;99.90;;;;;;5053017;28;20101;-61
2022/09/21 06:25:31;;;;;;;8.75;3.53;;;14.60;99.90;;;;;;5053825;28;20352;-59
2022/09/21 06:28:06;;;;;;;6.60;3.45;;;14.60;99.90;;;;;;5053158;28;20057;-60
2022/09/21 06:30:33;;;;;;;8.40;4.28;;;14.60;99.90;;;;;;5015843;28;20065;-59
2022/09/21 06:33:00;;;;;;;6.25;3.30;;;14.70;99.90;;;;;;5024396;28;20052;-60
2022/09/21 06:35:28;;;;;;;7.13;3.63;;;14.70;99.90;;;;;;5052795;28;20124;-60
2022/09/21 06:38:02;;;;;;;9.73;3.70;;;14.70;99.90;;;;;;5053520;28;20100;-61
2022/09/21 06:40:30;;;;;;;6.75;4.38;;;14.70;99.90;;;;;;5052616;28;20045;-60
2022/09/21 06:42:57;;;;;;;9.20;3.97;;;14.70;99.90;;;;;;5052787;28;20072;-60
2022/09/21 06:45:25;;;;;;;10.80;4.32;;;14.70;99.90;;;;;;5042040;28;20524;-60
2022/09/21 06:47:52;;;;;;;12.50;4.28;;;14.70;99.90;;;;;;5051097;28;20060;-59
2022/09/21 06:50:19;;;;;;;9.25;4.05;;;14.70;99.90;;;;;;5033304;28;20056;-59
2022/09/21 06:52:46;;;;;;;7.43;3.80;;;14.80;99.90;;;;;;5051339;28;20128;-60
2022/09/21 06:55:13;;;;;;;6.05;3.88;;;14.80;99.90;;;;;;5051808;28;20044;-60
2022/09/21 06:57:40;;;;;;;7.22;3.70;;;14.80;99.90;;;;;;5018871;28;20041;-59
2022/09/21 07:00:09;;;;;;;9.23;4.35;;;14.80;99.90;;;;;;5050814;28;20135;-59
2022/09/21 07:02:36;;;;;;;10.57;3.42;;;14.90;99.90;;;;;;5050781;28;20228;-59
2022/09/21 07:05:03;;;;;;;9.27;4.40;;;14.90;99.90;;;;;;5050229;28;20055;-59
2022/09/21 07:07:30;;;;;;;5.95;3.60;;;14.90;99.90;;;;;;5029484;28;20045;-60
2022/09/21 07:10:00;;;;;;;9.18;3.30;;;14.90;99.90;;;;;;5040405;28;20103;-60
2022/09/21 07:12:34;;;;;;;9.73;3.80;;;15.00;99.90;;;;;;5049964;28;20045;-59
2022/09/21 07:15:02;;;;;;;8.35;3.88;;;15.00;99.90;;;;;;5051001;28;20061;-60
2022/09/21 07:17:32;;;;;;;6.05;4.18;;;15.10;99.90;;;;;;5050227;28;20047;-60
2022/09/21 07:20:00;;;;;;;16.63;5.80;;;15.10;99.90;;;;;;5049987;28;20131;-61
2022/09/21 07:22:28;;;;;;;6.10;3.42;;;15.10;99.90;;;;;;5042698;28;20043;-58
2022/09/21 07:24:56;;;;;;;10.55;4.07;;;15.20;99.90;;;;;;5047978;28;20053;-59
2022/09/21 07:27:25;;;;;;;9.68;3.95;;;15.20;99.90;;;;;;5050881;28;20140;-61
2022/09/21 07:29:51;;;;;;;13.95;4.65;;;15.20;99.90;;;;;;5046703;28;20037;-59
2022/09/21 07:32:19;;;;;;;17.20;5.07;;;15.30;99.90;;;;;;5036113;28;20067;-57
2022/09/21 07:34:45;;;;;;;9.98;3.67;;;15.30;99.90;;;;;;5052871;28;20045;-58
2022/09/21 07:37:13;;;;;;;14.70;3.88;;;15.30;99.90;;;;;;5051168;28;20193;-59
2022/09/21 07:39:40;;;;;;;14.23;5.10;;;15.30;99.90;;;;;;5049442;28;20524;-60
2022/09/21 07:42:07;;;;;;;9.35;4.03;;;15.40;99.90;;;;;;5054510;28;20049;-61
2022/09/21 07:44:33;;;;;;;5.93;3.95;;;15.40;99.90;;;;;;5049481;28;20132;-59
2022/09/21 07:47:02;;;;;;;6.88;4.47;;;15.40;99.90;;;;;;5047002;28;20132;-59
2022/09/21 07:49:29;;;;;;;9.05;3.90;;;15.40;99.90;;;;;;5050375;28;20136;-59
2022/09/21 07:51:56;;;;;;;6.47;3.95;;;15.40;99.90;;;;;;5048429;28;20056;-59
2022/09/21 07:54:29;;;;;;;16.00;4.28;;;15.40;99.90;;;;;;5033916;28;20092;-59
2022/09/21 07:59:42;;;;;;;7.25;3.53;;;15.50;99.90;;;;;;5050448;28;20081;-59
2022/09/21 08:02:08;;;;;;;8.80;3.80;;;15.40;99.90;;;;;;5048329;28;20053;-59
2022/09/21 08:04:35;;;;;;;5.78;3.67;;;15.50;99.90;;;;;;5050173;28;20094;-60
2022/09/21 08:07:03;;;;;;;11.50;4.07;;;15.50;99.90;;;;;;5050088;28;20045;-61
2022/09/21 08:09:30;;;;;;;9.77;3.88;;;15.50;99.90;;;;;;5045393;28;20119;-60
2022/09/21 08:12:00;;;;;;;7.90;3.97;;;15.60;99.90;;;;;;5045475;28;20127;-59
2022/09/21 08:14:28;;;;;;;10.18;4.30;;;15.60;99.90;;;;;;5052296;28;20052;-59
2022/09/21 08:16:54;;;;;;;12.02;4.55;;;15.70;99.90;;;;;;5053677;28;20049;-60
2022/09/21 08:19:24;;;;;;;9.15;4.50;;;15.70;99.90;;;;;;5036250;28;20060;-60
2022/09/21 08:21:52;;;;;;;7.82;3.97;;;15.80;99.90;;;;;;5053680;28;20045;-60
2022/09/21 08:24:24;;;;;;;10.65;5.10;;;15.80;99.90;;;;;;5054194;28;20507;-60
2022/09/21 08:26:51;;;;;;;11.35;3.90;;;15.80;99.90;;;;;;5053494;28;20051;-60
2022/09/21 08:29:18;;;;;;;8.10;3.15;;;15.90;99.90;;;;;;5052543;28;20045;-61
2022/09/21 08:31:45;;;;;;;11.82;3.63;;;15.90;99.90;;;;;;5051104;28;20227;-60
2022/09/21 08:34:13;;;;;;;5.97;3.67;;;16.00;99.90;;;;;;5055263;28;20049;-60
2022/09/21 08:36:39;;;;;;;5.70;3.50;;;16.00;99.90;;;;;;5054903;28;20057;-60
2022/09/21 08:39:07;;;;;;;7.10;3.72;;;16.00;99.90;;;;;;5053160;28;20132;-61
2022/09/21 08:41:55;;;;;;;6.05;4.00;;;16.10;99.90;;;;;;5052920;28;20048;-60
2022/09/21 08:44:28;;;;;;;12.90;3.60;;;16.10;99.90;;;;;;5042911;28;20084;-61
2022/09/21 08:47:11;;;;;;;7.17;3.80;;;16.10;99.90;;;;;;5054965;28;20049;-60
2022/09/21 08:49:38;;;;;;;12.30;3.83;;;16.20;99.90;;;;;;5048633;28;20325;-59
2022/09/21 08:52:07;;;;;;;8.70;4.60;;;16.20;99.90;;;;;;5057872;28;20105;-64
2022/09/21 08:54:42;;;;;;;7.57;3.60;;;16.20;99.90;;;;;;5057644;28;20113;-59
2022/09/21 08:57:12;;;;;;;5.68;2.95;;;16.20;99.90;;;;;;5043055;28;20088;-60
2022/09/21 08:59:44;;;;;;;8.07;3.53;;;16.20;99.90;;;;;;5042985;28;20047;-59
2022/09/21 09:02:19;;;;;;;9.43;3.33;;;16.30;99.90;;;;;;5039976;28;20053;-59
2022/09/21 09:05:27;;;;;;;14.60;4.07;;;16.30;99.90;;;;;;5060335;28;20041;-60
2022/09/21 09:08:12;;;;;;;14.27;4.13;;;16.40;99.90;;;;;;5052401;28;20041;-59
2022/09/21 09:11:01;;;;;;;10.40;4.45;;;16.40;99.90;;;;;;5059743;28;20059;-60
2022/09/21 09:14:05;;;;;;;15.23;3.78;;;16.50;99.90;;;;;;5058380;28;20066;-60
2022/09/21 09:16:53;;;;;;;12.32;4.50;;;16.60;99.90;;;;;;5056634;28;20492;-60
2022/09/21 09:19:28;;;;;;;10.48;4.82;;;16.60;99.90;;;;;;5055755;28;20080;-60
2022/09/21 09:21:55;;;;;;;20.00;5.05;;;16.60;99.90;;;;;;5051615;28;20053;-60
2022/09/21 09:24:22;;;;;;;13.02;4.00;;;16.70;99.90;;;;;;5050743;28;20087;-60
2022/09/21 09:27:03;;;;;;;7.00;3.83;;;16.70;99.90;;;;;;5056127;28;20132;-60
2022/09/21 09:29:36;;;;;;;8.07;4.40;;;16.80;99.90;;;;;;5057072;28;20048;-61
2022/09/21 09:32:03;;;;;;;8.73;4.57;;;16.80;99.90;;;;;;5055383;28;20076;-60
2022/09/21 09:34:44;;;;;;;8.20;4.47;;;16.80;99.90;;;;;;5056012;28;20056;-60
2022/09/21 09:37:15;;;;;;;6.75;3.80;;;16.80;99.90;;;;;;5039609;28;20067;-59
2022/09/21 09:39:49;;;;;;;7.15;4.38;;;16.80;99.90;;;;;;5038197;28;20045;-60
2022/09/21 09:42:47;;;;;;;7.68;4.38;;;16.90;99.90;;;;;;5052079;28;20056;-60
2022/09/21 09:45:30;;;;;;;7.05;4.70;;;16.90;99.90;;;;;;5052425;28;20621;-60
2022/09/21 09:48:19;;;;;;;7.88;4.43;;;17.00;99.90;;;;;;5032551;28;20500;-61
2022/09/21 09:50:46;;;;;;;8.68;5.22;;;17.00;99.90;;;;;;5051010;28;20409;-61
2022/09/21 09:53:24;;;;;;;8.10;4.90;;;17.00;99.90;;;;;;5051928;28;20137;-60
2022/09/21 09:55:53;;;;;;;14.90;5.13;;;17.00;99.90;;;;;;5051239;28;20059;-61
2022/09/21 09:58:42;;;;;;;8.98;4.78;;;17.00;99.90;;;;;;5053273;28;20122;-61
2022/09/21 10:01:09;;;;;;;9.45;4.68;;;17.10;99.90;;;;;;5052995;28;20419;-60
2022/09/21 10:03:36;;;;;;;9.38;4.72;;;17.10;99.90;;;;;;5035356;28;20051;-60
2022/09/21 10:06:03;;;;;;;8.50;4.20;;;17.20;99.90;;;;;;5034865;28;20478;-61
2022/09/21 10:08:35;;;;;;;9.15;4.20;;;17.20;99.90;;;;;;5052745;28;20142;-60
2022/09/21 10:11:03;;;;;;;9.90;4.07;;;17.30;99.90;;;;;;5052754;28;20044;-59
2022/09/21 10:13:38;;;;;;;6.50;3.53;;;17.30;99.90;;;;;;5051472;28;20064;-60
2022/09/21 10:16:19;;;;;;;12.18;4.03;;;17.40;99.90;;;;;;5035582;28;20045;-60
2022/09/21 10:18:55;;;;;;;6.47;3.58;;;17.40;99.90;;;;;;5052697;28;20080;-61
2022/09/21 10:21:31;;;;;;;5.78;3.30;;;17.50;99.90;;;;;;5051040;28;20144;-61
2022/09/21 10:24:00;;;;;;;6.65;3.90;;;17.60;99.90;;;;;;5031320;28;20053;-59
2022/09/21 10:26:36;;;;;;;7.75;4.03;;;17.60;99.90;;;;;;5046116;28;20053;-59
2022/09/21 10:29:24;;;;;;;7.10;3.60;;;17.60;99.90;;;;;;5050530;28;20055;-58
2022/09/21 10:32:01;;;;;;;5.78;3.78;;;17.60;99.90;;;;;;5076621;28;20040;-58
2022/09/21 10:34:32;;;;;;;6.65;3.65;;;17.70;99.90;;;;;;5055374;28;20056;-59
2022/09/21 10:37:01;;;;;;;9.75;3.65;;;17.70;99.90;;;;;;5058850;28;20072;-59
2022/09/21 10:39:28;;;;;;;5.85;3.28;;;17.80;99.90;;;;;;5056620;28;20109;-58
2022/09/21 10:42:01;;;;;;;6.85;3.63;;;17.90;99.90;;;;;;5074961;28;20112;-59
2022/09/21 10:44:43;;;;;;;4.80;2.73;;;17.90;99.90;;;;;;5071865;28;20056;-58
2022/09/21 10:47:35;;;;;;;6.07;3.17;;;18.00;99.90;;;;;;5058603;28;20056;-59
2022/09/21 10:50:19;;;;;;;3.50;2.20;;;18.00;99.90;;;;;;5018955;28;20049;-59
2022/09/21 10:52:46;;;;;;;4.43;3.17;;;18.10;99.90;;;;;;5052359;28;20080;-58
2022/09/21 10:55:21;;;;;;;6.88;3.53;;;18.10;99.90;;;;;;5055757;28;20049;-58
2022/09/21 10:57:48;;;;;;;3.38;2.67;;;18.10;99.90;;;;;;5059265;28;20048;-58
2022/09/21 11:00:21;;;;;;;5.50;3.70;;;18.10;99.90;;;;;;5061558;28;20073;-56
2022/09/21 11:02:49;;;;;;;6.85;3.50;;;18.10;99.90;;;;;;5062780;28;20076;-58
2022/09/21 11:05:22;;;;;;;8.65;2.97;;;18.20;99.90;;;;;;5067917;28;20059;-61
2022/09/21 11:07:57;;;;;;;9.60;2.85;;;18.30;99.90;;;;;;5072938;28;20021;-58
2022/09/21 11:11:06;;;;;;;5.05;3.05;;;18.30;99.90;;;;;;5069807;28;20104;-58
2022/09/21 11:13:38;;;;;;;3.50;2.63;;;18.30;99.90;;;;;;5061582;28;20061;-59
2022/09/21 11:16:14;;;;;;;3.88;2.88;;;18.40;99.90;;;;;;5061115;28;20053;-58
2022/09/21 11:19:08;;;;;;;5.93;3.00;;;18.50;99.90;;;;;;5055179;28;20466;-60
2022/09/21 11:21:42;;;;;;;4.53;2.28;;;18.50;99.90;;;;;;5065160;28;20057;-59
2022/09/21 11:24:36;;;;;;;3.22;1.58;;;18.60;99.90;;;;;;5045790;28;20075;-60
2022/09/21 11:27:11;;;;;;;9.45;2.25;;;18.60;99.90;;;;;;5068373;28;20091;-62
2022/09/21 11:30:02;;;;;;;3.75;2.08;;;18.70;99.90;;;;;;5071053;28;20104;-59
2022/09/21 11:32:36;;;;;;;5.45;1.95;;;18.70;99.90;;;;;;5068086;28;20053;-59
2022/09/21 11:35:23;;;;;;;4.47;2.28;;;18.80;99.90;;;;;;5063732;28;20104;-58
2022/09/21 11:37:57;;;;;;;4.10;2.38;;;18.90;99.20;;;;;;5074090;28;20025;-59
2022/09/21 11:40:34;;;;;;;4.60;2.50;;;18.90;99.90;;;;;;5073932;28;20029;-60
2022/09/21 11:43:23;;;;;;;4.22;2.03;;;19.00;99.90;;;;;;4714885;28;9999965;-59
2022/09/21 11:46:12;;;;;;;4.38;2.05;;;19.20;99.90;;;;;;5062072;28;20053;-60
2022/09/21 11:48:58;;;;;;;7.38;2.03;;;19.20;99.90;;;;;;5059832;28;20048;-59
2022/09/21 11:51:54;;;;;;;9.70;3.30;;;19.30;99.90;;;;;;5059040;28;20148;-60
2022/09/21 11:54:56;;;;;;;5.45;2.58;;;19.30;99.90;;;;;;5059396;28;20053;-61
2022/09/21 11:57:52;;;;;;;6.32;2.63;;;19.40;99.90;;;;;;5042036;28;20057;-59
2022/09/21 12:00:21;;;;;;;11.63;2.83;;;19.60;99.90;;;;;;5045607;28;20075;-60
2022/09/21 12:02:51;;;;;;;5.38;2.58;;;19.60;99.90;;;;;;5061308;28;20048;-60
2022/09/21 12:05:38;;;;;;;5.20;2.28;;;19.70;99.90;;;;;;5060598;28;20041;-60
2022/09/21 12:08:39;;;;;;;8.55;2.85;;;19.80;99.90;;;;;;5059771;28;20061;-60
2022/09/21 12:11:22;;;;;;;7.72;2.17;;;19.90;96.80;;;;;;5060283;28;20112;-60
2022/09/21 12:14:08;;;;;;;8.85;2.47;;;19.90;98.60;;;;;;5043752;28;20041;-61
2022/09/21 12:16:43;;;;;;;5.10;2.60;;;20.00;98.10;;;;;;5054288;28;20092;-59
2022/09/21 12:19:32;;;;;;;4.15;2.28;;;20.00;97.30;;;;;;5062239;28;20296;-59
2022/09/21 12:22:17;;;;;;;3.65;2.13;;;20.00;96.50;;;;;;5046362;28;20068;-58
2022/09/21 12:24:52;;;;;;;8.05;2.88;;;20.10;96.70;;;;;;5060996;28;20076;-59
2022/09/21 12:27:25;;;;;;;4.82;2.30;;;20.10;96.70;;;;;;5042711;28;20052;-60
2022/09/21 12:29:57;;;;;;;5.05;1.83;;;20.20;97.10;;;;;;5062068;28;20049;-59
2022/09/21 12:32:39;;;;;;;7.65;2.53;;;20.30;95.60;;;;;;5044626;28;20045;-58
2022/09/21 12:35:08;;;;;;;6.65;2.08;;;20.40;94.80;;;;;;5059450;28;20408;-59
2022/09/21 12:37:46;;;;;;;3.78;1.85;;;20.50;96.10;;;;;;5044314;28;20113;-59
2022/09/21 12:40:19;;;;;;;4.63;2.15;;;20.60;92.50;;;;;;5061498;28;20041;-59
2022/09/21 12:42:47;;;;;;;5.30;1.65;;;20.70;93.40;;;;;;5044950;28;20324;-59
2022/09/21 12:45:24;;;;;;;6.10;1.90;;;20.70;92.70;;;;;;5062013;28;20084;-59
2022/09/21 12:47:56;;;;;;;4.22;1.50;;;20.70;90.00;;;;;;5045981;28;20045;-59
2022/09/21 12:51:23;;;;;;;6.53;1.70;;;20.80;91.00;;;;;;5062766;28;20072;-59
2022/09/21 12:53:54;;;;;;;2.97;1.85;;;20.90;84.50;;;;;;5045055;28;20056;-60
2022/09/21 12:56:28;;;;;;;9.27;1.88;;;20.90;90.40;;;;;;5045565;28;20108;-59
2022/09/21 12:58:55;;;;;;;8.73;2.40;;;20.90;87.40;;;;;;5058041;28;20143;-59
2022/09/21 13:01:30;;;;;;;5.70;1.77;;;21.00;90.30;;;;;;5066144;28;20168;-59
2022/09/21 13:04:15;;;;;;;5.40;2.40;;;21.10;84.80;;;;;;5066566;28;20087;-59
2022/09/21 13:07:16;;;;;;;11.45;2.00;;;20.90;80.10;;;;;;5067349;28;20104;-58
2022/09/21 13:09:44;;;;;;;3.33;2.10;;;20.90;83.30;;;;;;5046404;28;20069;-59
2022/09/21 13:12:23;;;;;;;4.28;2.67;;;20.90;85.00;;;;;;5046210;28;20083;-59
2022/09/21 13:14:58;;;;;;;5.72;2.13;;;21.00;79.40;;;;;;5046491;28;20132;-60
2022/09/21 13:17:30;;;;;;;7.20;2.50;;;21.00;83.20;;;;;;5062666;28;20452;-60